Fort Bridger AP, Fort Bridger, WY

5:17 PM MDT on April 26, 2018 (GMT -0600)
Fort Bridger

Weather History for KFBR - April, 2014

Change the Weather History Date:

Tuesday, April 15, 2014

  Actual Average (KEVW) Record (KEVW)
Temperature  
Mean Temperature 46 °F -  
Max Temperature 59 °F 46 °F 63 °F (2002)
Min Temperature 32 °F 26 °F 17 °F (1999)
Degree Days  
Heating Degree Days 20    
Moisture  
Dew Point 13 °F    
Average Humidity 31    
Maximum Humidity 67    
Minimum Humidity 14    
Precipitation  
Precipitation 0.00 in - - ()
Sea Level Pressure  
Sea Level Pressure 29.99 in    
Wind  
Wind Speed 16 mph (West)    
Max Wind Speed 34 mph    
Max Gust Speed 50 mph    
Visibility 10 miles    
Events      
Averages and records for this station are not official NWS values.
T = Trace of Precipitation, MM = Missing Value Source: NWS Daily Summary

Daily Weather History Graph

Daily Weather History Graph

Search for Another Location

Airport or City:

Astronomy

Apr. 15, 2014 Rise Set
Actual Time 6:41 AM MDT 8:02 PM MDT
Civil Twilight 6:13 AM MDT 8:30 PM MDT
Nautical Twilight 5:38 AM MDT 9:05 PM MDT
Astronomical Twilight 5:02 AM MDT 9:41 PM MDT
Moon 8:47 PM MDT (4/15) 6:51 AM MDT (4/15)
Length of Visible Light 14h 17m
Length of Day
13h 20m
Full, 100% of the Moon is Illuminated
Apr 15
Full
Apr 22
Last Quarter
Apr 29
New
May 6
First Quarter
May 14
Full

Hourly Weather History & Observations

Time (MDT) Temp. Windchill Dew Point Humidity Pressure Visibility Wind Dir Wind Speed Gust Speed Precip Events Conditions
12:15 AM 35.2 °F 26.6 °F 3.9 °F 27% 30.22 in 10.0 mi WSW 12.7 mph - N/A   Clear
12:35 AM 35.1 °F 26.9 °F 6.6 °F 31% 30.20 in 10.0 mi WSW 11.5 mph - N/A   Clear
12:55 AM 35.8 °F 27.8 °F 7.7 °F 31% 30.21 in 10.0 mi WSW 11.5 mph - N/A   Clear
1:15 AM 35.1 °F 27.9 °F 9.3 °F 34% 30.20 in 10.0 mi WSW 9.2 mph 17.3 mph N/A   Clear
1:35 AM 33.8 °F 27.7 °F 10.8 °F 38% 30.19 in 10.0 mi WSW 6.9 mph - N/A   Clear
1:55 AM 32.0 °F 24.2 °F 11.7 °F 43% 30.18 in 10.0 mi WSW 9.2 mph - N/A   Clear
2:15 AM 34.5 °F 25.3 °F 8.6 °F 34% 30.17 in 10.0 mi WSW 13.8 mph - N/A   Clear
2:35 AM 35.1 °F 25.9 °F 7.2 °F 31% 30.16 in 10.0 mi WSW 13.8 mph - N/A   Clear
2:55 AM 38.5 °F 30.3 °F 3.7 °F 23% 30.14 in 10.0 mi SW 13.8 mph - N/A   Clear
3:15 AM 37.2 °F 29.1 °F 3.4 °F 24% 30.14 in 10.0 mi WSW 12.7 mph - N/A   Clear
3:35 AM 35.1 °F 26.9 °F 5.7 °F 29% 30.13 in 10.0 mi WSW 11.5 mph - N/A   Clear
3:55 AM 35.8 °F 27.8 °F 6.4 °F 29% 30.12 in 10.0 mi WSW 11.5 mph - N/A   Clear
4:15 AM 39.0 °F 30.3 °F 6.3 °F 26% 30.11 in 10.0 mi SW 16.1 mph - N/A   Clear
4:35 AM 38.7 °F 30.9 °F 8.1 °F 28% 30.10 in 10.0 mi WSW 12.7 mph - N/A   Clear
4:55 AM 38.3 °F 31.4 °F 9.0 °F 30% 30.09 in 10.0 mi WSW 10.4 mph - N/A   Clear
5:15 AM 37.0 °F 30.4 °F 10.2 °F 33% 30.09 in 10.0 mi WSW 9.2 mph - N/A   Clear
5:35 AM 35.8 °F 29.4 °F 11.1 °F 36% 30.08 in 10.0 mi WSW 8.1 mph - N/A   Clear
5:55 AM 34.7 °F 28.8 °F 12.2 °F 39% 30.08 in 10.0 mi West 6.9 mph - N/A   Clear
6:15 AM 35.4 °F 28.4 °F 12.2 °F 38% 30.08 in 10.0 mi West 9.2 mph - N/A   Clear
6:35 AM 35.4 °F 28.4 °F 12.7 °F 39% 30.08 in 10.0 mi WSW 9.2 mph - N/A   Scattered Clouds
6:55 AM 35.8 °F 30.1 °F 12.0 °F 38% 30.06 in 10.0 mi West 6.9 mph - N/A   Scattered Clouds
7:15 AM 36.9 °F 30.7 °F 11.3 °F 35% 30.07 in 10.0 mi West 8.1 mph - N/A   Scattered Clouds
7:35 AM 36.5 °F 31.0 °F 12.4 °F 37% 30.06 in 10.0 mi West 6.9 mph - N/A   Clear
7:55 AM 37.4 °F 32.8 °F 11.3 °F 34% 30.06 in 10.0 mi West 5.8 mph - N/A   Clear
8:15 AM 37.4 °F 33.8 °F 13.8 °F 38% 30.06 in 10.0 mi WNW 4.6 mph - N/A   Clear
8:35 AM 37.8 °F 34.2 °F 14.5 °F 39% 30.05 in 10.0 mi WNW 4.6 mph - N/A   Clear
8:55 AM 40.8 °F 36.2 °F 14.9 °F 35% 30.04 in 10.0 mi West 6.9 mph - N/A   Clear
9:15 AM 44.6 °F 37.2 °F 13.5 °F 28% 30.04 in 10.0 mi West 17.3 mph 23.0 mph N/A   Clear
9:40 AM 46.4 °F 39.2 °F 12.0 °F 25% 30.02 in 10.0 mi West 18.4 mph 25.3 mph N/A   Clear
9:55 AM 48.2 °F - 12.4 °F 24% 30.02 in 10.0 mi West 17.3 mph 27.6 mph N/A   Clear
10:15 AM 50.0 °F - 10.4 °F 20% 30.02 in 10.0 mi West 20.7 mph 32.2 mph N/A   Clear
10:35 AM 51.3 °F - 10.8 °F 20% 30.01 in 10.0 mi West 24.2 mph 32.2 mph N/A   Clear
10:55 AM 52.7 °F - 9.9 °F 18% 30.00 in 10.0 mi WSW 27.6 mph 34.5 mph N/A   Clear
11:35 AM 54.0 °F - 8.1 °F 16% 29.99 in 10.0 mi West 28.8 mph 38.0 mph N/A   Clear
11:55 AM 54.5 °F - 8.2 °F 16% 29.98 in 10.0 mi West 27.6 mph 36.8 mph N/A   Clear
12:15 PM 56.1 °F - 10.6 °F 16% 29.97 in 10.0 mi West 23.0 mph 32.2 mph N/A   Clear
12:40 PM 57.4 °F - 9.5 °F 15% 29.96 in 10.0 mi West 28.8 mph 35.7 mph N/A   Clear
12:55 PM 57.7 °F - 9.9 °F 15% 29.95 in 10.0 mi West 25.3 mph 38.0 mph N/A   Clear
1:15 PM 57.7 °F - 10.0 °F 15% 29.94 in 10.0 mi WSW 26.5 mph 35.7 mph N/A   Clear
1:35 PM 58.5 °F - 12.6 °F 16% 29.91 in 10.0 mi WSW 28.8 mph 42.6 mph N/A   Clear
1:55 PM 59.2 °F - 11.1 °F 15% 29.90 in 10.0 mi West 32.2 mph 44.9 mph N/A   Clear
2:15 PM 59.4 °F - 9.5 °F 14% 29.90 in 10.0 mi West 31.1 mph 43.7 mph N/A   Clear
2:40 PM 59.5 °F - 9.7 °F 14% 29.88 in 10.0 mi West 33.4 mph 49.5 mph N/A   Clear
2:55 PM 59.7 °F - 10.4 °F 14% 29.88 in 10.0 mi West 33.4 mph 44.9 mph N/A   Clear
3:15 PM 58.8 °F - 10.6 °F 15% 29.87 in 10.0 mi West 33.4 mph 46.0 mph N/A   Scattered Clouds
3:55 PM 59.0 °F - 11.7 °F 15% 29.86 in 10.0 mi West 32.2 mph 48.3 mph N/A   Scattered Clouds
4:15 PM 56.3 °F - 10.9 °F 17% 29.86 in 10.0 mi West 32.2 mph 42.6 mph N/A   Scattered Clouds
4:35 PM 55.6 °F - 11.7 °F 18% 29.87 in 10.0 mi West 34.5 mph 44.9 mph N/A   Clear
4:55 PM 53.8 °F - 12.0 °F 19% 29.85 in 10.0 mi West 29.9 mph 40.3 mph N/A   Clear
5:15 PM 53.8 °F - 13.1 °F 20% 29.85 in 10.0 mi West 31.1 mph 40.3 mph N/A   Scattered Clouds
5:35 PM 52.9 °F - 13.6 °F 21% 29.85 in 10.0 mi West 28.8 mph 41.4 mph N/A   Mostly Cloudy
5:55 PM 52.5 °F - 15.1 °F 23% 29.85 in 10.0 mi WNW 31.1 mph 42.6 mph N/A   Overcast
6:15 PM 51.4 °F - 18.3 °F 27% 29.85 in 10.0 mi WNW 27.6 mph 38.0 mph N/A   Overcast
6:35 PM 50.2 °F - 18.7 °F 29% 29.85 in 10.0 mi WNW 23.0 mph 35.7 mph N/A   Mostly Cloudy
6:55 PM 48.2 °F - 22.5 °F 36% 29.85 in 10.0 mi NW 24.2 mph 34.5 mph N/A   Mostly Cloudy
7:15 PM 44.8 °F 36.2 °F 26.1 °F 48% 29.87 in 10.0 mi NW 23.0 mph 33.4 mph N/A   Mostly Cloudy
7:35 PM 43.5 °F 35.2 °F 27.3 °F 53% 29.87 in 10.0 mi NW 19.6 mph 29.9 mph N/A   Mostly Cloudy
7:55 PM 42.6 °F 32.8 °F 28.4 °F 57% 29.87 in 10.0 mi WNW 25.3 mph 32.2 mph N/A   Overcast
8:15 PM 41.4 °F 30.9 °F 31.3 °F 67% 29.88 in 10.0 mi West 26.5 mph 32.2 mph N/A   Light Drizzle
8:35 PM 42.3 °F 32.8 °F 29.8 °F 61% 29.87 in 10.0 mi West 23.0 mph 28.8 mph N/A   Overcast
8:55 PM 42.3 °F 32.8 °F 28.2 °F 58% 29.88 in 10.0 mi West 23.0 mph 27.6 mph N/A   Scattered Clouds
9:15 PM 41.9 °F 33.4 °F 27.7 °F 57% 29.90 in 10.0 mi West 18.4 mph 25.3 mph N/A   Clear
9:35 PM 41.4 °F 32.7 °F 25.2 °F 53% 29.90 in 10.0 mi WNW 18.4 mph 26.5 mph N/A   Clear
9:55 PM 40.8 °F 32.3 °F 22.3 °F 48% 29.90 in 10.0 mi West 17.3 mph 27.6 mph N/A   Clear
10:15 PM 40.1 °F 31.3 °F 19.4 °F 43% 29.91 in 10.0 mi West 17.3 mph 21.9 mph N/A   Clear
10:35 PM 40.1 °F 31.0 °F 15.6 °F 37% 29.91 in 10.0 mi West 18.4 mph 26.5 mph N/A   Clear
10:55 PM 40.1 °F 29.7 °F 12.7 °F 33% 29.91 in 10.0 mi West 24.2 mph 31.1 mph N/A   Clear
11:15 PM 39.7 °F 29.2 °F 12.0 °F 32% 29.92 in 10.0 mi WNW 24.2 mph 34.5 mph N/A   Clear
11:35 PM 39.2 °F 28.5 °F 13.6 °F 35% 29.92 in 10.0 mi West 24.2 mph 33.4 mph N/A   Clear
11:55 PM 38.7 °F 27.8 °F 12.0 °F 34% 29.92 in 10.0 mi West 24.2 mph 36.8 mph N/A   Clear